createdAt,value
2023-01-17T00:02:13.886Z,5.46
2023-01-17T00:04:59.035Z,5.76
2023-01-17T00:07:44.020Z,4.99
2023-01-17T00:10:13.895Z,4.99
2023-01-17T00:12:46.370Z,5.17
2023-01-17T00:15:14.174Z,5.05
2023-01-17T00:17:41.644Z,4.15
2023-01-17T00:20:28.230Z,4.77
2023-01-17T00:23:13.036Z,4.66
2023-01-17T00:25:59.656Z,4.74
2023-01-17T00:28:26.423Z,4.73
2023-01-17T00:30:52.776Z,5.23
2023-01-17T00:33:19.364Z,4.93
2023-01-17T00:35:45.795Z,4.68
2023-01-17T00:38:12.846Z,4.53
2023-01-17T00:40:41.136Z,4.59
2023-01-17T00:43:26.306Z,4.39
2023-01-17T00:46:10.987Z,4.82
2023-01-17T00:48:56.434Z,4.81
2023-01-17T00:51:41.773Z,4.66
2023-01-17T00:54:27.158Z,4.54
2023-01-17T00:57:13.256Z,5.04
2023-01-17T00:59:58.418Z,5.35
2023-01-17T01:02:43.931Z,5.26
2023-01-17T01:05:29.124Z,4.93
2023-01-17T01:08:14.566Z,5.20
2023-01-17T01:10:59.526Z,4.70
2023-01-17T01:13:46.086Z,4.32
2023-01-17T01:16:31.367Z,4.94
2023-01-17T01:19:17.041Z,4.64
2023-01-17T01:22:01.952Z,4.58
2023-01-17T01:24:46.780Z,4.95
2023-01-17T01:27:32.198Z,4.74
2023-01-17T01:30:18.335Z,4.46
2023-01-17T01:33:03.255Z,4.18
2023-01-17T01:35:30.850Z,4.30
2023-01-17T01:37:58.396Z,4.51
2023-01-17T01:40:25.851Z,4.24
2023-01-17T01:42:55.175Z,4.18
2023-01-17T01:45:25.119Z,3.83
2023-01-17T01:47:52.994Z,4.34
2023-01-17T01:50:20.621Z,4.18
2023-01-17T01:52:49.189Z,4.33
2023-01-17T01:55:17.089Z,4.07
2023-01-17T01:57:45.478Z,4.45
2023-01-17T02:00:14.787Z,4.17
2023-01-17T02:02:43.633Z,4.03
2023-01-17T02:05:11.298Z,4.00
2023-01-17T02:07:39.742Z,3.71
2023-01-17T02:10:07.322Z,3.77
2023-01-17T02:12:34.874Z,3.88
2023-01-17T02:15:02.369Z,3.69
2023-01-17T02:17:32.513Z,3.94
2023-01-17T02:20:22.548Z,4.00
2023-01-17T02:22:59.301Z,3.79
2023-01-17T02:25:32.413Z,3.96
2023-01-17T02:28:04.583Z,3.68
2023-01-17T02:30:34.809Z,3.51
2023-01-17T02:33:04.756Z,3.37
2023-01-17T02:35:35.052Z,3.46
2023-01-17T02:38:04.665Z,3.26
2023-01-17T02:40:33.019Z,2.87
2023-01-17T02:43:02.673Z,3.00
2023-01-17T02:45:30.387Z,3.52
2023-01-17T02:47:59.269Z,3.08
2023-01-17T02:50:27.306Z,2.96
2023-01-17T02:53:02.496Z,2.96
2023-01-17T02:55:34.004Z,3.23
2023-01-17T02:58:20.634Z,3.19
2023-01-17T03:00:51.827Z,4.09
2023-01-17T03:03:23.906Z,4.34
2023-01-17T03:05:51.910Z,3.68
2023-01-17T03:08:19.399Z,3.82
2023-01-17T03:10:46.865Z,3.80
2023-01-17T03:13:14.556Z,3.59
2023-01-17T03:15:42.186Z,3.26
2023-01-17T03:18:11.408Z,3.89
2023-01-17T03:20:40.293Z,4.07
2023-01-17T03:23:07.755Z,3.60
2023-01-17T03:25:35.251Z,3.95
2023-01-17T03:28:02.775Z,4.05
2023-01-17T03:30:30.333Z,3.54
2023-01-17T03:32:57.798Z,3.92
2023-01-17T03:35:25.347Z,3.77
2023-01-17T03:37:54.211Z,3.38
2023-01-17T03:40:21.746Z,3.17
2023-01-17T03:42:49.221Z,3.29
2023-01-17T03:45:16.876Z,3.21
2023-01-17T03:47:44.359Z,3.56
2023-01-17T03:50:12.722Z,3.60
2023-01-17T03:52:40.197Z,3.64
2023-01-17T03:55:09.710Z,3.61
2023-01-17T03:57:37.282Z,3.66
2023-01-17T04:00:05.228Z,3.74
2023-01-17T04:02:32.790Z,3.80
2023-01-17T04:05:00.443Z,4.06
2023-01-17T04:07:27.987Z,4.01
2023-01-17T04:09:55.582Z,3.80
2023-01-17T04:12:24.416Z,3.88
2023-01-17T04:14:51.882Z,4.23
2023-01-17T04:17:19.911Z,4.43
2023-01-17T04:19:47.417Z,3.86
2023-01-17T04:22:14.894Z,3.98
2023-01-17T04:24:42.378Z,3.98
2023-01-17T04:27:14.107Z,4.31
2023-01-17T04:29:44.748Z,3.70
2023-01-17T04:32:13.349Z,3.67
2023-01-17T04:34:40.808Z,3.83
2023-01-17T04:37:08.328Z,4.20
2023-01-17T04:39:35.899Z,3.71
2023-01-17T04:42:03.850Z,4.36
2023-01-17T04:44:31.345Z,4.36
2023-01-17T04:47:01.904Z,4.66
2023-01-17T04:49:29.494Z,4.45
2023-01-17T04:51:57.001Z,4.15
2023-01-17T04:54:24.474Z,4.00
2023-01-17T04:56:51.982Z,4.23
2023-01-17T04:59:19.461Z,4.25
2023-01-17T05:01:48.686Z,4.26
2023-01-17T05:04:17.722Z,4.89
2023-01-17T05:06:45.685Z,4.67
2023-01-17T05:09:13.240Z,4.40
2023-01-17T05:11:40.895Z,4.35
2023-01-17T05:14:08.446Z,4.36
2023-01-17T05:16:36.095Z,4.14
2023-01-17T05:19:03.633Z,3.42
2023-01-17T05:21:32.513Z,3.42
2023-01-17T05:24:00.051Z,3.92
2023-01-17T05:26:27.620Z,3.92
2023-01-17T05:28:55.118Z,3.16
2023-01-17T05:31:22.630Z,3.75
2023-01-17T05:33:50.174Z,3.40
2023-01-17T05:36:18.898Z,3.15
2023-01-17T05:38:49.140Z,3.69
2023-01-17T05:41:16.683Z,3.31
2023-01-17T05:43:44.470Z,3.19
2023-01-17T05:46:12.047Z,3.13
2023-01-17T05:48:39.622Z,3.28
2023-01-17T05:51:07.344Z,3.38
2023-01-17T05:53:34.930Z,3.29
2023-01-17T05:56:03.842Z,3.80
2023-01-17T05:58:31.350Z,3.49
2023-01-17T06:00:58.885Z,3.32
2023-01-17T06:03:26.643Z,3.16
2023-01-17T06:05:54.199Z,3.07
2023-01-17T06:08:23.384Z,2.74
2023-01-17T06:10:51.004Z,3.03
2023-01-17T06:13:21.909Z,3.25
2023-01-17T06:15:49.541Z,2.85
2023-01-17T06:18:17.656Z,3.71
2023-01-17T06:20:45.441Z,3.30
2023-01-17T06:23:13.378Z,3.18
2023-01-17T06:25:41.168Z,2.92
2023-01-17T06:28:08.703Z,3.17
2023-01-17T06:30:37.613Z,3.13
2023-01-17T06:33:05.326Z,3.06
2023-01-17T06:35:32.867Z,2.80
2023-01-17T06:38:00.532Z,3.33
2023-01-17T06:40:28.246Z,2.93
2023-01-17T06:42:55.870Z,2.43
2023-01-17T06:45:23.357Z,2.89
2023-01-17T06:47:52.217Z,2.49
2023-01-17T06:50:19.740Z,3.02
2023-01-17T06:52:50.391Z,2.81
2023-01-17T06:55:17.924Z,2.80
2023-01-17T06:57:45.405Z,3.55
2023-01-17T07:00:13.424Z,3.13
2023-01-17T07:02:40.938Z,3.24
2023-01-17T07:05:10.707Z,3.46
2023-01-17T07:07:38.163Z,2.99
2023-01-17T07:10:06.110Z,3.00
2023-01-17T07:12:33.594Z,3.02
2023-01-17T07:15:01.046Z,2.60
2023-01-17T07:17:28.532Z,2.73
2023-01-17T07:19:56.046Z,2.74
2023-01-17T07:22:24.857Z,3.01
2023-01-17T07:24:53.497Z,2.75
2023-01-17T07:27:20.956Z,2.92
2023-01-17T07:29:48.452Z,3.18
2023-01-17T07:32:15.997Z,3.15
2023-01-17T07:34:43.503Z,2.92
2023-01-17T07:37:11.350Z,3.26
2023-01-17T07:39:40.933Z,2.97
2023-01-17T07:42:09.171Z,2.95
2023-01-17T07:44:36.774Z,3.01
2023-01-17T07:47:04.350Z,2.95
2023-01-17T07:49:31.892Z,3.24
2023-01-17T07:51:59.364Z,3.23
2023-01-17T07:54:27.282Z,3.19
2023-01-17T07:56:56.166Z,3.01
2023-01-17T07:59:23.664Z,3.03
2023-01-17T08:01:51.264Z,2.83
2023-01-17T08:04:18.910Z,3.17
2023-01-17T08:06:48.680Z,3.00
2023-01-17T08:09:16.161Z,3.02
2023-01-17T08:11:43.685Z,2.46
2023-01-17T08:14:12.538Z,2.20
2023-01-17T08:16:40.222Z,2.48
2023-01-17T08:19:07.837Z,3.50
2023-01-17T08:21:35.330Z,2.95
2023-01-17T08:24:02.865Z,2.76
2023-01-17T08:26:30.362Z,3.36
2023-01-17T08:29:00.169Z,4.07
2023-01-17T08:31:29.189Z,3.56
2023-01-17T08:33:57.354Z,3.18
2023-01-17T08:36:26.268Z,3.79
2023-01-17T08:38:53.785Z,4.11
2023-01-17T08:41:21.628Z,2.82
2023-01-17T08:43:49.557Z,3.47
2023-01-17T08:46:17.080Z,3.66
2023-01-17T08:48:45.933Z,3.76
2023-01-17T08:51:13.553Z,3.10
2023-01-17T08:53:41.886Z,3.79
2023-01-17T08:56:10.284Z,2.92
2023-01-17T08:58:37.798Z,3.44
2023-01-17T09:01:06.427Z,3.79
2023-01-17T09:03:34.358Z,3.59
2023-01-17T09:06:04.016Z,3.65
2023-01-17T09:08:31.514Z,3.43
2023-01-17T09:10:59.094Z,3.63
2023-01-17T09:13:26.569Z,3.68
2023-01-17T09:15:56.901Z,3.58
2023-01-17T09:18:24.528Z,3.72
2023-01-17T09:20:54.864Z,4.00
2023-01-17T09:23:23.989Z,3.57
2023-01-17T09:25:54.371Z,4.21
2023-01-17T09:28:22.032Z,3.76
2023-01-17T09:30:49.991Z,3.93
2023-01-17T09:33:17.556Z,4.15
2023-01-17T09:35:45.254Z,3.77
2023-01-17T09:38:12.860Z,3.99
2023-01-17T09:40:43.820Z,4.24
2023-01-17T09:43:13.513Z,3.56
2023-01-17T09:45:41.029Z,4.16
2023-01-17T09:48:10.180Z,4.50
2023-01-17T09:50:38.793Z,4.61
2023-01-17T09:53:06.611Z,4.35
2023-01-17T09:55:35.706Z,4.56
2023-01-17T09:58:06.045Z,4.59
2023-01-17T10:00:37.007Z,4.21
2023-01-17T10:03:10.752Z,4.30
2023-01-17T10:05:42.183Z,4.04
2023-01-17T10:08:12.924Z,4.59
2023-01-17T10:10:41.310Z,3.71
2023-01-17T10:13:13.560Z,4.35
2023-01-17T10:15:47.339Z,4.24
2023-01-17T10:18:30.358Z,4.69
2023-01-17T10:20:59.146Z,4.65
2023-01-17T10:23:34.305Z,4.77
2023-01-17T10:26:01.833Z,3.67
2023-01-17T10:28:32.175Z,4.69
2023-01-17T10:31:01.047Z,4.41
2023-01-17T10:33:29.720Z,4.71
2023-01-17T10:35:57.959Z,4.59
2023-01-17T10:38:27.936Z,3.95
2023-01-17T10:40:56.239Z,4.79
2023-01-17T10:43:25.167Z,4.34
2023-01-17T10:45:54.713Z,4.77
2023-01-17T10:48:23.827Z,5.04
2023-01-17T10:50:53.460Z,4.85
2023-01-17T10:53:24.231Z,4.61
2023-01-17T10:55:53.363Z,4.91
2023-01-17T10:58:20.846Z,4.45
2023-01-17T11:00:49.322Z,4.85
2023-01-17T11:03:20.723Z,4.35
2023-01-17T11:05:59.060Z,4.46
2023-01-17T11:08:26.534Z,4.07
2023-01-17T11:10:54.371Z,4.31
2023-01-17T11:13:23.957Z,3.94
2023-01-17T11:15:51.999Z,4.07
2023-01-17T11:18:21.465Z,4.36
2023-01-17T11:20:49.470Z,4.63
2023-01-17T11:23:17.467Z,4.11
2023-01-17T11:25:51.546Z,4.12
2023-01-17T11:28:21.131Z,4.23
2023-01-17T11:30:52.090Z,4.59
2023-01-17T11:33:31.721Z,4.42
2023-01-17T11:35:59.302Z,5.06
2023-01-17T11:38:26.833Z,4.89
2023-01-17T11:41:14.320Z,4.41
2023-01-17T11:43:49.635Z,4.51
2023-01-17T11:46:18.090Z,5.07
2023-01-17T11:48:49.378Z,4.06
2023-01-17T11:51:26.798Z,4.72
2023-01-17T11:53:54.658Z,4.48
2023-01-17T11:56:30.194Z,4.61
2023-01-17T11:59:16.298Z,5.16
2023-01-17T12:01:44.606Z,4.57
2023-01-17T12:04:24.796Z,4.55
2023-01-17T12:07:16.725Z,4.53
2023-01-17T12:09:45.970Z,4.77
2023-01-17T12:12:33.336Z,4.77
2023-01-17T12:15:03.195Z,4.07
2023-01-17T12:17:34.105Z,4.43
2023-01-17T12:20:06.086Z,5.37
2023-01-17T12:22:51.679Z,4.58
2023-01-17T12:25:27.125Z,5.13
2023-01-17T12:27:59.805Z,5.10
2023-01-17T12:30:31.752Z,4.73
2023-01-17T12:33:15.722Z,5.35
2023-01-17T12:35:45.508Z,5.19
2023-01-17T12:38:27.286Z,5.32
2023-01-17T12:41:00.434Z,4.78
2023-01-17T12:43:30.041Z,5.00
2023-01-17T12:45:57.545Z,4.83
2023-01-17T12:48:25.186Z,5.16
2023-01-17T12:50:55.203Z,5.39
2023-01-17T12:53:25.676Z,4.90
2023-01-17T12:55:54.345Z,4.72
2023-01-17T12:58:22.979Z,5.02
2023-01-17T13:00:52.310Z,5.37
2023-01-17T13:03:23.922Z,5.52
2023-01-17T13:05:51.437Z,5.16
2023-01-17T13:08:21.477Z,5.37
2023-01-17T13:10:51.208Z,5.51
2023-01-17T13:13:22.426Z,5.33
2023-01-17T13:15:50.254Z,6.01
2023-01-17T13:18:22.798Z,5.32
2023-01-17T13:20:56.092Z,5.18
2023-01-17T13:23:28.657Z,5.26
2023-01-17T13:25:57.006Z,5.61
2023-01-17T13:28:27.664Z,5.87
2023-01-17T13:31:15.855Z,5.77
2023-01-17T13:33:46.743Z,5.84
2023-01-17T13:36:18.565Z,4.93
2023-01-17T13:38:59.362Z,6.04
2023-01-17T13:41:38.047Z,5.10
2023-01-17T13:44:24.379Z,5.56
2023-01-17T13:46:59.633Z,5.67
2023-01-17T13:49:34.514Z,6.05
2023-01-17T13:52:03.269Z,5.80
2023-01-17T13:54:32.568Z,6.03
2023-01-17T13:57:18.727Z,5.81
2023-01-17T13:59:46.297Z,4.89
2023-01-17T14:02:28.682Z,5.10
2023-01-17T14:05:12.527Z,5.21
2023-01-17T14:07:43.075Z,5.03
2023-01-17T14:10:24.601Z,5.13
2023-01-17T14:12:52.148Z,5.35
2023-01-17T14:15:22.202Z,5.58
2023-01-17T14:17:59.522Z,5.26
2023-01-17T14:20:33.546Z,5.99
2023-01-17T14:23:01.376Z,5.32
2023-01-17T14:25:30.695Z,5.19
2023-01-17T14:27:59.551Z,5.31
2023-01-17T14:30:27.720Z,5.71
2023-01-17T14:33:08.675Z,5.04
2023-01-17T14:35:37.068Z,5.18
2023-01-17T14:38:05.830Z,5.78
2023-01-17T14:40:35.258Z,5.23
2023-01-17T14:43:03.818Z,5.47
2023-01-17T14:45:31.950Z,5.05
2023-01-17T14:47:59.967Z,5.12
2023-01-17T14:50:29.218Z,5.58
2023-01-17T14:53:28.152Z,5.35
2023-01-17T14:55:58.596Z,5.11
2023-01-17T14:58:26.935Z,5.31
2023-01-17T15:00:56.230Z,5.22
2023-01-17T15:03:23.856Z,5.38
2023-01-17T15:05:52.165Z,5.34
2023-01-17T15:08:20.605Z,5.16
2023-01-17T15:10:49.358Z,5.29
2023-01-17T15:13:23.369Z,5.12
2023-01-17T15:16:06.596Z,5.26
2023-01-17T15:18:36.281Z,4.85
2023-01-17T15:21:04.462Z,4.70
2023-01-17T15:23:34.526Z,5.09
2023-01-17T15:26:02.345Z,5.36
2023-01-17T15:28:31.473Z,5.22
2023-01-17T15:31:03.081Z,4.99
2023-01-17T15:33:31.286Z,4.86
2023-01-17T15:36:02.371Z,4.87
2023-01-17T15:38:38.264Z,4.78
2023-01-17T15:41:08.941Z,4.65
2023-01-17T15:43:37.851Z,4.76
2023-01-17T15:46:05.950Z,4.82
2023-01-17T15:48:36.480Z,4.68
2023-01-17T15:51:04.058Z,4.58
2023-01-17T15:53:32.432Z,4.38
2023-01-17T15:56:00.328Z,4.38
2023-01-17T15:58:29.251Z,4.29
2023-01-17T16:00:58.268Z,4.20
2023-01-17T16:03:27.303Z,4.12
2023-01-17T16:05:56.885Z,4.05
2023-01-17T16:08:25.947Z,3.88
2023-01-17T16:10:54.805Z,3.89
2023-01-17T16:13:22.379Z,3.82
2023-01-17T16:15:49.894Z,3.79
2023-01-17T16:18:19.158Z,3.77
2023-01-17T16:20:48.243Z,3.71
2023-01-17T16:23:15.789Z,3.77
2023-01-17T16:25:44.469Z,3.75
2023-01-17T16:28:11.955Z,3.78
2023-01-17T16:30:39.506Z,3.83
2023-01-17T16:33:07.072Z,3.86
2023-01-17T16:35:36.900Z,3.85
2023-01-17T16:38:05.244Z,3.83
2023-01-17T16:40:33.259Z,3.74
2023-01-17T16:43:01.750Z,3.71
2023-01-17T16:45:29.865Z,3.75
2023-01-17T16:47:57.373Z,3.48
2023-01-17T16:50:25.620Z,3.28
2023-01-17T16:52:56.123Z,3.17
2023-01-17T16:55:24.290Z,3.09
2023-01-17T16:57:52.694Z,3.24
2023-01-17T17:00:20.713Z,3.09
2023-01-17T17:02:50.342Z,3.18
2023-01-17T17:05:18.024Z,3.01
2023-01-17T17:07:46.309Z,3.07
2023-01-17T17:10:16.534Z,3.01
2023-01-17T17:12:44.289Z,3.04
2023-01-17T17:15:12.175Z,3.05
2023-01-17T17:17:40.152Z,2.82
2023-01-17T17:20:09.636Z,2.95
2023-01-17T17:22:37.199Z,3.05
2023-01-17T17:25:05.241Z,3.05
2023-01-17T17:27:34.138Z,3.13
2023-01-17T17:30:01.644Z,3.05
2023-01-17T17:32:29.215Z,2.95
2023-01-17T17:34:56.724Z,3.12
2023-01-17T17:37:24.377Z,3.17
2023-01-17T17:39:51.940Z,3.13
2023-01-17T17:42:20.616Z,3.05
2023-01-17T17:44:49.660Z,3.01
2023-01-17T17:47:17.810Z,3.11
2023-01-17T17:49:45.311Z,3.08
2023-01-17T17:52:13.817Z,3.02
2023-01-17T17:54:41.357Z,3.07
2023-01-17T17:57:08.867Z,3.05
2023-01-17T17:59:36.386Z,2.91
2023-01-17T18:02:06.681Z,2.94
2023-01-17T18:04:34.249Z,3.02
2023-01-17T18:07:01.901Z,2.92
2023-01-17T18:09:29.429Z,2.86
2023-01-17T18:11:56.983Z,2.97
2023-01-17T18:14:24.514Z,2.87
2023-01-17T18:16:52.164Z,2.82
2023-01-17T18:19:21.577Z,2.83
2023-01-17T18:21:50.365Z,2.82
2023-01-17T18:24:18.667Z,2.69
2023-01-17T18:26:46.953Z,2.77
2023-01-17T18:29:15.894Z,2.89
2023-01-17T18:31:43.525Z,2.69
2023-01-17T18:34:11.834Z,2.91
2023-01-17T18:36:40.780Z,3.21
2023-01-17T18:39:11.621Z,3.29
2023-01-17T18:41:39.103Z,3.28
2023-01-17T18:44:07.009Z,3.18
2023-01-17T18:46:34.849Z,3.11
2023-01-17T18:49:02.574Z,2.98
2023-01-17T18:51:31.782Z,2.95
2023-01-17T18:54:04.846Z,2.95
2023-01-17T18:56:34.090Z,2.90
2023-01-17T18:59:01.805Z,2.90
2023-01-17T19:01:29.802Z,3.00
2023-01-17T19:03:58.618Z,2.92
2023-01-17T19:06:27.184Z,2.98
2023-01-17T19:08:54.815Z,3.00
2023-01-17T19:11:24.051Z,2.95
2023-01-17T19:13:52.472Z,2.78
2023-01-17T19:16:20.910Z,2.77
2023-01-17T19:18:48.509Z,2.92
2023-01-17T19:21:17.330Z,2.94
2023-01-17T19:23:44.850Z,2.95
2023-01-17T19:26:12.766Z,2.64
2023-01-17T19:28:42.027Z,2.73
2023-01-17T19:31:10.059Z,2.51
2023-01-17T19:33:38.233Z,2.25
2023-01-17T19:36:06.718Z,2.75
2023-01-17T19:38:35.229Z,2.62
2023-01-17T19:41:07.578Z,2.40
2023-01-17T19:43:35.117Z,2.23
2023-01-17T19:46:03.962Z,2.70
2023-01-17T19:48:31.475Z,2.51
2023-01-17T19:51:04.330Z,2.67
2023-01-17T19:53:31.794Z,2.48
2023-01-17T19:55:59.237Z,2.21
2023-01-17T19:58:26.734Z,2.61
2023-01-17T20:00:54.883Z,2.30
2023-01-17T20:03:24.002Z,2.22
2023-01-17T20:05:56.450Z,2.55
2023-01-17T20:08:24.020Z,2.39
2023-01-17T20:10:51.546Z,2.21
2023-01-17T20:13:19.001Z,2.32
2023-01-17T20:15:46.492Z,2.42
2023-01-17T20:18:14.049Z,2.58
2023-01-17T20:20:56.334Z,2.65
2023-01-17T20:23:24.362Z,2.54
2023-01-17T20:25:58.844Z,2.53
2023-01-17T20:28:27.721Z,2.36
2023-01-17T20:30:55.408Z,2.38
2023-01-17T20:33:23.169Z,2.46
2023-01-17T20:36:08.722Z,2.17
2023-01-17T20:38:44.387Z,2.13
2023-01-17T20:41:12.440Z,2.12
2023-01-17T20:43:40.064Z,2.40
2023-01-17T20:46:07.716Z,2.33
2023-01-17T20:48:35.374Z,2.48
2023-01-17T20:51:05.831Z,2.38
2023-01-17T20:53:33.809Z,2.35
2023-01-17T20:56:01.298Z,2.25
2023-01-17T20:58:28.893Z,2.27
2023-01-17T21:00:56.640Z,2.36
2023-01-17T21:03:24.979Z,2.37
2023-01-17T21:05:52.452Z,2.39
2023-01-17T21:08:21.281Z,2.14
2023-01-17T21:10:48.987Z,2.01
2023-01-17T21:13:16.569Z,2.31
2023-01-17T21:15:44.393Z,2.40
2023-01-17T21:18:11.927Z,2.50
2023-01-17T21:20:39.485Z,2.37
2023-01-17T21:23:08.987Z,2.54
2023-01-17T21:25:37.874Z,2.56
2023-01-17T21:28:06.094Z,2.44
2023-01-17T21:30:33.707Z,2.30
2023-01-17T21:33:01.223Z,2.40
2023-01-17T21:35:30.061Z,2.31
2023-01-17T21:37:57.923Z,2.33
2023-01-17T21:40:25.659Z,2.29
2023-01-17T21:42:54.552Z,2.27
2023-01-17T21:45:22.107Z,2.24
2023-01-17T21:47:49.937Z,2.14
2023-01-17T21:50:32.401Z,2.10
2023-01-17T21:53:00.681Z,2.12
2023-01-17T21:55:45.830Z,2.06
2023-01-17T21:58:32.846Z,2.01
2023-01-17T22:01:10.966Z,1.99
2023-01-17T22:03:38.616Z,2.06
2023-01-17T22:06:06.299Z,2.00
2023-01-17T22:08:34.055Z,1.90
2023-01-17T22:11:03.502Z,1.91
2023-01-17T22:13:33.207Z,1.80
2023-01-17T22:16:01.274Z,1.73
2023-01-17T22:18:28.890Z,1.69
2023-01-17T22:20:58.099Z,1.66
2023-01-17T22:23:25.685Z,1.51
2023-01-17T22:25:53.251Z,1.44
2023-01-17T22:28:20.871Z,1.68
2023-01-17T22:30:49.710Z,1.72
2023-01-17T22:33:17.271Z,1.86
2023-01-17T22:35:44.758Z,1.86
2023-01-17T22:38:12.366Z,1.72
2023-01-17T22:40:39.835Z,1.73
2023-01-17T22:43:07.313Z,1.60
2023-01-17T22:45:34.845Z,1.58
2023-01-17T22:48:03.707Z,1.74
2023-01-17T22:50:31.219Z,1.79
2023-01-17T22:52:59.001Z,1.74
2023-01-17T22:55:26.677Z,1.62
2023-01-17T22:57:54.127Z,1.74
2023-01-17T23:00:21.786Z,1.64
2023-01-17T23:02:49.283Z,1.73
2023-01-17T23:05:18.350Z,1.66
2023-01-17T23:07:46.402Z,1.70
2023-01-17T23:10:34.488Z,1.69
2023-01-17T23:13:01.974Z,1.72
2023-01-17T23:15:47.171Z,1.60
2023-01-17T23:18:32.389Z,1.64
2023-01-17T23:21:01.209Z,1.61
2023-01-17T23:23:28.705Z,1.64
2023-01-17T23:26:00.102Z,1.71
2023-01-17T23:28:26.622Z,1.60
2023-01-17T23:30:54.085Z,1.56
2023-01-17T23:33:21.616Z,1.34
2023-01-17T23:35:49.081Z,1.15
2023-01-17T23:38:29.264Z,0.90
2023-01-17T23:41:18.200Z,1.12
2023-01-17T23:43:45.789Z,1.36
2023-01-17T23:46:13.610Z,1.35
2023-01-17T23:48:41.122Z,1.48
2023-01-17T23:51:09.012Z,1.37
2023-01-17T23:53:38.118Z,1.54
2023-01-17T23:56:06.421Z,1.47
2023-01-17T23:58:34.048Z,1.41
